Time;durP1;ratioP1;P1;durP2;ratioP2;P2;SDS_P1;SDS_P2;PMS_P1;PMS_P2;Temp;Humidity;BMP_temperature;BMP_pressure;BME280_temperature;BME280_humidity;BME280_pressure;Samples;Min_cycle;Max_cycle;Signal;HPM_P1;HPM_P2
2022/05/21 00:01:25;;;;;;;5.70;2.40;;;13.10;83.90;;;;;;5076300;28;20172;-81
2022/05/21 00:03:51;;;;;;;6.03;2.53;;;13.20;82.50;;;;;;5076301;28;20754;-79
2022/05/21 00:06:17;;;;;;;6.20;2.53;;;13.20;81.40;;;;;;5074677;28;20168;-77
2022/05/21 00:08:43;;;;;;;6.43;2.40;;;13.20;81.20;;;;;;5075114;28;20176;-84
2022/05/21 00:11:09;;;;;;;4.17;2.00;;;13.10;83.00;;;;;;5078444;28;20169;-85
2022/05/21 00:13:35;;;;;;;5.63;2.03;;;13.10;83.00;;;;;;5081773;28;20177;-87
2022/05/21 00:16:01;;;;;;;6.60;2.37;;;13.00;83.50;;;;;;5076692;28;20233;-77
2022/05/21 00:18:27;;;;;;;5.53;2.37;;;12.90;83.80;;;;;;5075277;28;20619;-77
2022/05/21 00:20:52;;;;;;;5.40;2.10;;;13.20;82.60;;;;;;5076808;28;20180;-86
2022/05/21 00:23:25;;;;;;;5.80;2.27;;;13.10;83.40;;;;;;5076936;28;20540;-84
2022/05/21 00:26:00;;;;;;;5.57;2.30;;;13.10;84.30;;;;;;5076531;28;20173;-78
2022/05/21 00:28:26;;;;;;;7.90;2.57;;;13.10;83.40;;;;;;5076001;28;20678;-87
2022/05/21 00:30:52;;;;;;;5.57;2.43;;;13.20;79.50;;;;;;5075075;28;20196;-77
2022/05/21 00:33:17;;;;;;;6.90;2.40;;;13.20;79.40;;;;;;5074855;28;20634;-78
2022/05/21 00:35:43;;;;;;;6.83;2.50;;;13.20;78.40;;;;;;5075337;28;20179;-81
2022/05/21 00:38:10;;;;;;;6.90;2.57;;;13.20;79.00;;;;;;5074452;28;20265;-77
2022/05/21 00:40:36;;;;;;;5.43;2.43;;;13.10;79.90;;;;;;5075886;28;20168;-78
2022/05/21 00:43:03;;;;;;;5.60;2.07;;;13.10;80.40;;;;;;5075749;28;20229;-79
2022/05/21 00:45:30;;;;;;;5.97;2.37;;;13.10;79.70;;;;;;5073787;28;20184;-78
2022/05/21 00:47:56;;;;;;;8.03;2.80;;;13.00;82.20;;;;;;5074606;28;20161;-81
2022/05/21 00:50:24;;;;;;;5.90;2.50;;;13.00;82.60;;;;;;5075679;28;20177;-81
2022/05/21 00:52:52;;;;;;;6.97;2.70;;;13.00;81.80;;;;;;5075931;28;20809;-82
2022/05/21 00:55:23;;;;;;;6.43;2.97;;;13.10;81.50;;;;;;5073222;28;20176;-80
2022/05/21 01:00:42;;;;;;;4.87;2.63;;;13.00;82.20;;;;;;5075600;28;20256;-85
2022/05/21 01:03:10;;;;;;;7.20;2.87;;;13.00;80.80;;;;;;5074964;28;20607;-77
2022/05/21 01:05:37;;;;;;;4.90;2.90;;;13.10;81.50;;;;;;5074042;28;20626;-80
2022/05/21 01:08:03;;;;;;;7.33;3.17;;;12.90;83.70;;;;;;5074536;28;20223;-80
2022/05/21 01:10:33;;;;;;;8.87;3.40;;;12.90;83.60;;;;;;5075013;28;20165;-85
2022/05/21 01:13:02;;;;;;;5.93;2.87;;;12.90;82.50;;;;;;5074699;28;20164;-81
2022/05/21 01:15:32;;;;;;;4.43;2.33;;;12.90;82.70;;;;;;5073269;28;20176;-76
2022/05/21 01:17:59;;;;;;;5.90;3.03;;;12.80;83.90;;;;;;5074493;28;20201;-79
2022/05/21 01:20:38;;;;;;;6.27;2.73;;;12.70;85.10;;;;;;5074975;28;20164;-85
2022/05/21 01:23:04;;;;;;;6.13;3.00;;;12.80;83.80;;;;;;5075632;28;20615;-80
2022/05/21 01:25:31;;;;;;;7.13;2.70;;;12.80;84.00;;;;;;5074504;28;20176;-77
2022/05/21 01:27:58;;;;;;;7.77;3.10;;;12.70;84.90;;;;;;5079618;28;20255;-74
2022/05/21 01:30:49;;;;;;;5.37;2.73;;;12.70;85.30;;;;;;5085456;28;20207;-75
2022/05/21 01:33:17;;;;;;;6.43;3.40;;;12.80;83.30;;;;;;5078697;28;20171;-83
2022/05/21 01:35:45;;;;;;;8.30;3.23;;;12.70;84.00;;;;;;5078361;28;20173;-86
2022/05/21 01:38:21;;;;;;;8.17;2.77;;;12.80;82.50;;;;;;5075615;28;20192;-80
2022/05/21 01:40:57;;;;;;;8.10;3.03;;;13.00;78.20;;;;;;5078177;28;20307;-84
2022/05/21 01:46:09;;;;;;;7.93;2.93;;;12.80;79.80;;;;;;5078847;28;20225;-77
2022/05/21 01:48:35;;;;;;;6.43;2.67;;;12.80;79.60;;;;;;5074357;28;20603;-77
2022/05/21 01:51:01;;;;;;;6.83;2.47;;;12.90;78.60;;;;;;5078357;28;20196;-82
2022/05/21 01:53:28;;;;;;;5.17;2.87;;;12.80;79.90;;;;;;5088453;28;20180;-76
2022/05/21 01:55:57;;;;;;;9.67;2.93;;;12.80;80.30;;;;;;5083660;28;20179;-75
2022/05/21 01:58:22;;;;;;;6.13;3.00;;;12.70;81.20;;;;;;5078450;28;20295;-76
2022/05/21 02:00:48;;;;;;;5.70;2.50;;;12.60;82.90;;;;;;5078839;28;20192;-80
2022/05/21 02:03:17;;;;;;;4.97;2.47;;;12.60;83.20;;;;;;5076329;28;20183;-81
2022/05/21 02:05:49;;;;;;;7.53;2.77;;;12.60;83.20;;;;;;5078965;28;20167;-84
2022/05/21 02:08:17;;;;;;;7.80;2.77;;;12.60;82.90;;;;;;5078564;28;20169;-80
2022/05/21 02:10:43;;;;;;;5.00;2.60;;;12.70;80.80;;;;;;5081307;28;20218;-84
2022/05/21 02:13:16;;;;;;;9.50;3.10;;;12.70;82.40;;;;;;5085049;28;20178;-79
2022/05/21 02:15:41;;;;;;;6.30;2.23;;;12.60;83.60;;;;;;5080909;28;20187;-77
2022/05/21 02:18:07;;;;;;;5.97;3.17;;;12.70;82.10;;;;;;5086359;28;20684;-75
2022/05/21 02:20:32;;;;;;;6.20;3.07;;;12.70;81.80;;;;;;5089469;28;20177;-78
2022/05/21 02:22:58;;;;;;;5.20;2.57;;;12.60;82.10;;;;;;5091398;28;20175;-76
2022/05/21 02:25:24;;;;;;;6.30;2.53;;;12.60;82.90;;;;;;5083598;28;20188;-75
2022/05/21 02:27:49;;;;;;;4.70;2.70;;;12.80;82.90;;;;;;5083575;28;20648;-76
2022/05/21 02:30:16;;;;;;;8.20;3.50;;;12.70;82.30;;;;;;5088863;28;20181;-75
2022/05/21 02:32:42;;;;;;;6.53;2.80;;;12.70;82.40;;;;;;5089936;28;20167;-75
2022/05/21 02:35:19;;;;;;;6.57;2.83;;;12.60;84.00;;;;;;5092268;28;20173;-80
2022/05/21 02:40:32;;;;;;;4.80;2.93;;;12.60;85.80;;;;;;5082331;28;20639;-78
2022/05/21 02:42:58;;;;;;;8.53;3.23;;;12.70;84.70;;;;;;5080389;28;20168;-76
2022/05/21 02:45:31;;;;;;;7.50;3.07;;;12.60;85.80;;;;;;5080193;28;20234;-79
2022/05/21 02:47:59;;;;;;;7.40;2.97;;;12.60;86.50;;;;;;5078676;28;20157;-78
2022/05/21 02:50:30;;;;;;;5.83;3.10;;;12.60;87.00;;;;;;5081486;28;20263;-77
2022/05/21 02:53:06;;;;;;;8.47;2.73;;;12.60;87.80;;;;;;5088224;28;20148;-75
2022/05/21 02:55:53;;;;;;;9.40;2.93;;;12.50;88.20;;;;;;5090108;28;20164;-81
2022/05/21 02:58:25;;;;;;;8.47;3.47;;;12.50;90.00;;;;;;5085129;28;20188;-76
2022/05/21 03:00:51;;;;;;;6.43;3.33;;;12.50;90.30;;;;;;5086389;28;20156;-75
2022/05/21 03:03:20;;;;;;;6.23;2.87;;;12.50;90.60;;;;;;5083417;28;20340;-77
2022/05/21 03:05:45;;;;;;;6.57;2.77;;;12.50;91.20;;;;;;5085760;28;20163;-85
2022/05/21 03:14:37;;;;;;;6.13;2.90;;;12.40;92.30;;;;;;5077610;28;20522;-80
2022/05/21 03:17:04;;;;;;;7.57;3.53;;;12.50;92.20;;;;;;5077746;28;20180;-85
2022/05/21 03:19:32;;;;;;;6.23;2.80;;;12.50;92.10;;;;;;5077633;28;20242;-81
2022/05/21 03:21:58;;;;;;;7.97;3.83;;;12.50;92.50;;;;;;5076946;28;20172;-77
2022/05/21 03:24:26;;;;;;;6.63;3.13;;;12.40;92.30;;;;;;5076619;28;20168;-79
2022/05/21 03:26:52;;;;;;;6.57;3.00;;;12.40;92.40;;;;;;5075636;28;20161;-76
2022/05/21 03:29:18;;;;;;;10.27;3.77;;;12.40;92.90;;;;;;5076389;28;20713;-77
2022/05/21 03:31:44;;;;;;;10.83;3.27;;;12.50;92.60;;;;;;5076717;28;20625;-85
2022/05/21 03:34:10;;;;;;;9.10;3.53;;;12.40;93.10;;;;;;5076245;28;20168;-77
2022/05/21 03:36:36;;;;;;;6.27;2.87;;;12.40;93.20;;;;;;5075944;28;20179;-76
2022/05/21 03:39:02;;;;;;;8.93;3.43;;;12.60;93.00;;;;;;5074418;28;20215;-84
2022/05/21 03:41:28;;;;;;;7.57;3.27;;;12.50;93.20;;;;;;5077202;28;20231;-80
2022/05/21 03:43:55;;;;;;;6.77;3.03;;;12.50;93.00;;;;;;5076710;28;20177;-82
2022/05/21 03:46:21;;;;;;;9.00;3.43;;;12.40;93.90;;;;;;5077335;28;20168;-85
2022/05/21 03:48:47;;;;;;;9.00;3.20;;;12.40;94.20;;;;;;5077194;28;20183;-83
2022/05/21 03:51:13;;;;;;;10.10;4.10;;;12.40;94.70;;;;;;5077325;28;20247;-85
2022/05/21 03:53:39;;;;;;;12.07;3.83;;;12.40;95.20;;;;;;5076807;28;20225;-79
2022/05/21 03:56:06;;;;;;;9.37;3.60;;;12.50;95.10;;;;;;5078283;28;20259;-83
2022/05/21 03:58:33;;;;;;;8.67;3.40;;;12.50;95.00;;;;;;5079154;28;20201;-85
2022/05/21 04:00:58;;;;;;;9.10;4.03;;;12.50;95.50;;;;;;5076233;28;20169;-77
2022/05/21 04:03:24;;;;;;;10.27;3.67;;;12.50;95.60;;;;;;5076134;28;20533;-77
2022/05/21 04:05:53;;;;;;;9.07;4.37;;;12.50;95.90;;;;;;5076344;28;20238;-77
2022/05/21 04:08:18;;;;;;;11.10;3.87;;;12.70;95.10;;;;;;5076544;28;20172;-78
2022/05/21 04:10:44;;;;;;;14.37;4.47;;;12.80;94.60;;;;;;5083968;28;20180;-77
2022/05/21 04:13:10;;;;;;;12.67;3.60;;;12.70;94.40;;;;;;5088576;28;20194;-76
2022/05/21 04:15:35;;;;;;;11.50;4.13;;;12.70;95.00;;;;;;5077547;28;20216;-78
2022/05/21 04:18:02;;;;;;;10.33;3.63;;;12.80;95.20;;;;;;5075385;28;20292;-78
2022/05/21 04:20:28;;;;;;;10.47;3.67;;;13.00;94.20;;;;;;5079733;28;20165;-77
2022/05/21 04:22:54;;;;;;;13.57;3.37;;;13.00;93.00;;;;;;5080545;28;20621;-81
2022/05/21 04:25:20;;;;;;;10.20;3.90;;;13.00;93.40;;;;;;5075804;28;20184;-77
2022/05/21 04:27:46;;;;;;;7.60;3.97;;;13.00;93.80;;;;;;5080774;28;20211;-74
2022/05/21 04:30:25;;;;;;;7.27;3.57;;;12.90;94.80;;;;;;5089847;28;20256;-77
2022/05/21 04:32:52;;;;;;;10.70;3.73;;;12.90;95.20;;;;;;5091628;28;20235;-83
2022/05/21 04:35:19;;;;;;;10.33;3.73;;;13.00;94.90;;;;;;5093479;28;20232;-75
2022/05/21 04:37:45;;;;;;;12.37;3.40;;;13.00;94.50;;;;;;5093514;28;20234;-81
2022/05/21 04:40:17;;;;;;;9.80;3.80;;;13.00;94.50;;;;;;5079775;28;20176;-75
2022/05/21 04:42:43;;;;;;;10.90;3.80;;;13.00;94.80;;;;;;5076559;28;20175;-77
2022/05/21 04:45:10;;;;;;;12.03;4.23;;;13.10;94.60;;;;;;5075914;28;20156;-76
2022/05/21 04:47:39;;;;;;;9.53;3.73;;;13.10;94.70;;;;;;5075396;28;20165;-76
2022/05/21 04:50:09;;;;;;;9.40;3.73;;;13.30;94.70;;;;;;5076342;28;20200;-77
2022/05/21 04:52:44;;;;;;;12.47;3.93;;;13.10;94.80;;;;;;5076895;28;20252;-78
2022/05/21 04:55:10;;;;;;;12.67;4.00;;;13.10;94.90;;;;;;5076996;28;20172;-78
2022/05/21 04:57:36;;;;;;;10.97;3.77;;;13.20;94.60;;;;;;5076894;28;20196;-75
2022/05/21 05:00:05;;;;;;;10.90;4.03;;;13.30;93.70;;;;;;5076951;28;20172;-79
2022/05/21 05:02:31;;;;;;;14.23;3.90;;;13.40;93.70;;;;;;5080625;28;20176;-76
2022/05/21 05:04:57;;;;;;;9.10;3.53;;;13.40;93.10;;;;;;5080798;28;20188;-81
2022/05/21 05:07:23;;;;;;;9.80;3.27;;;13.40;93.20;;;;;;5079295;28;20232;-76
2022/05/21 05:09:50;;;;;;;8.47;3.20;;;13.40;93.50;;;;;;5076365;28;20188;-77
2022/05/21 05:12:16;;;;;;;8.10;2.93;;;13.40;93.20;;;;;;5075952;28;20158;-83
2022/05/21 05:14:42;;;;;;;11.57;3.93;;;13.50;92.30;;;;;;5074645;28;20175;-77
2022/05/21 05:17:11;;;;;;;9.33;3.97;;;13.60;91.70;;;;;;5074693;28;20259;-77
2022/05/21 05:19:37;;;;;;;10.47;3.27;;;13.90;90.70;;;;;;5074971;28;20633;-78
2022/05/21 05:22:03;;;;;;;7.67;3.33;;;13.70;91.20;;;;;;5074135;28;20176;-79
2022/05/21 05:24:29;;;;;;;8.97;3.57;;;13.70;91.30;;;;;;5075249;28;20169;-85
2022/05/21 05:26:55;;;;;;;13.90;4.03;;;13.90;90.90;;;;;;5090124;28;20176;-76
2022/05/21 05:29:21;;;;;;;13.20;4.00;;;14.10;90.80;;;;;;5089232;28;20198;-75
2022/05/21 05:31:47;;;;;;;13.83;3.50;;;14.00;90.90;;;;;;5076031;28;20196;-78
2022/05/21 05:34:12;;;;;;;12.93;3.70;;;14.10;90.40;;;;;;5075955;28;20173;-77
2022/05/21 05:36:41;;;;;;;11.70;3.60;;;14.30;88.40;;;;;;5074367;28;20293;-76
2022/05/21 05:39:11;;;;;;;10.33;3.70;;;14.30;88.10;;;;;;5072894;28;20245;-77
2022/05/21 05:41:38;;;;;;;10.83;4.10;;;14.50;83.60;;;;;;5073954;28;20623;-77
2022/05/21 05:44:04;;;;;;;11.83;4.97;;;14.40;83.90;;;;;;5075416;28;20171;-85
2022/05/21 05:46:30;;;;;;;13.50;4.10;;;14.50;83.10;;;;;;5074268;28;20173;-82
2022/05/21 05:48:56;;;;;;;15.40;4.10;;;14.50;81.60;;;;;;5074376;28;20186;-80
2022/05/21 05:51:22;;;;;;;15.00;4.67;;;14.50;83.50;;;;;;5078379;28;20630;-86
2022/05/21 05:53:48;;;;;;;17.57;4.93;;;14.50;82.60;;;;;;5076142;28;20180;-85
2022/05/21 05:56:15;;;;;;;15.77;4.83;;;14.50;83.60;;;;;;5076697;28;20184;-84
2022/05/21 06:01:25;;;;;;;14.03;3.93;;;14.50;84.80;;;;;;5075093;28;20644;-86
2022/05/21 06:03:51;;;;;;;14.90;4.20;;;14.60;83.70;;;;;;5076106;28;20196;-76
2022/05/21 06:06:17;;;;;;;16.03;4.70;;;14.60;83.10;;;;;;5074405;28;20169;-80
2022/05/21 06:08:44;;;;;;;16.13;4.50;;;14.80;83.50;;;;;;5078714;28;20267;-79
2022/05/21 06:11:11;;;;;;;11.80;4.27;;;14.90;80.00;;;;;;5078539;28;20170;-78
2022/05/21 06:13:37;;;;;;;13.40;5.30;;;15.00;78.40;;;;;;5078811;28;20172;-81
2022/05/21 06:16:03;;;;;;;12.87;4.20;;;15.00;76.40;;;;;;5085043;28;20187;-77
2022/05/21 06:18:29;;;;;;;16.33;4.87;;;15.00;73.90;;;;;;5084147;28;20218;-79
2022/05/21 06:21:01;;;;;;;13.33;5.07;;;15.00;72.20;;;;;;5085002;28;20257;-84
2022/05/21 06:23:27;;;;;;;12.70;5.10;;;14.80;73.80;;;;;;5084460;28;20235;-80
2022/05/21 06:25:53;;;;;;;17.57;5.17;;;14.80;77.10;;;;;;5079838;28;20249;-77
2022/05/21 06:28:20;;;;;;;15.30;5.43;;;14.90;77.10;;;;;;5080947;28;20564;-77
2022/05/21 06:30:46;;;;;;;16.20;5.70;;;14.80;78.20;;;;;;5082478;28;20220;-83
2022/05/21 06:33:20;;;;;;;13.63;5.93;;;14.90;78.80;;;;;;5081618;28;20253;-79
2022/05/21 06:35:48;;;;;;;14.50;5.87;;;15.00;71.30;;;;;;5078244;28;20254;-79
2022/05/21 06:38:14;;;;;;;13.80;5.77;;;15.20;67.50;;;;;;5074840;28;20670;-77
2022/05/21 06:40:40;;;;;;;16.63;6.53;;;15.20;65.10;;;;;;5072162;28;20162;-77
2022/05/21 06:43:07;;;;;;;18.63;8.07;;;15.30;64.20;;;;;;5078062;28;20234;-76
2022/05/21 06:45:34;;;;;;;14.63;7.10;;;15.00;59.50;;;;;;5081390;28;20533;-86
2022/05/21 06:48:06;;;;;;;18.57;7.47;;;15.10;62.50;;;;;;5097152;28;20190;-79
2022/05/21 06:50:33;;;;;;;18.40;7.17;;;15.00;64.20;;;;;;5092286;28;20296;-77
2022/05/21 06:52:59;;;;;;;17.07;7.80;;;15.10;62.60;;;;;;5075699;28;20189;-78
2022/05/21 06:55:26;;;;;;;13.93;6.23;;;15.20;61.90;;;;;;5078419;28;20166;-77
2022/05/21 06:57:52;;;;;;;17.03;6.63;;;15.10;57.00;;;;;;5076614;28;20209;-84
2022/05/21 07:00:24;;;;;;;14.23;7.17;;;15.20;58.30;;;;;;5070161;28;20545;-77
2022/05/21 07:02:51;;;;;;;14.20;6.70;;;15.30;59.70;;;;;;5073938;28;20177;-77
2022/05/21 07:08:05;;;;;;;19.07;6.70;;;15.40;52.60;;;;;;5076201;28;20183;-81
2022/05/21 07:10:33;;;;;;;14.83;6.67;;;15.30;56.00;;;;;;5074209;28;20262;-80
2022/05/21 07:12:59;;;;;;;12.90;6.37;;;15.20;56.10;;;;;;5070763;28;20170;-77
2022/05/21 07:15:25;;;;;;;10.03;5.90;;;15.30;55.70;;;;;;5068182;28;20263;-79
2022/05/21 07:17:58;;;;;;;13.30;5.87;;;15.30;55.50;;;;;;5074837;28;20209;-83
2022/05/21 07:20:25;;;;;;;13.93;6.00;;;15.30;56.10;;;;;;5080516;28;20231;-75
2022/05/21 07:22:52;;;;;;;13.83;6.67;;;15.30;53.90;;;;;;5080435;28;20157;-82
2022/05/21 07:25:23;;;;;;;12.73;5.73;;;15.10;57.80;;;;;;5075543;28;20671;-85
2022/05/21 07:27:50;;;;;;;12.47;6.07;;;15.30;57.70;;;;;;5075240;28;20200;-77
2022/05/21 07:30:17;;;;;;;16.23;6.73;;;15.20;54.10;;;;;;5084760;28;20274;-78
2022/05/21 07:32:44;;;;;;;13.53;6.23;;;15.40;55.10;;;;;;5088235;28;20256;-78
2022/05/21 07:35:12;;;;;;;12.23;5.37;;;15.60;45.50;;;;;;5083232;28;20156;-79
2022/05/21 07:37:39;;;;;;;13.10;5.80;;;15.60;45.70;;;;;;5076983;28;20212;-76
2022/05/21 07:40:08;;;;;;;14.87;5.17;;;15.60;45.90;;;;;;5076761;28;20172;-80
2022/05/21 07:42:35;;;;;;;12.57;5.07;;;15.70;47.00;;;;;;5076586;28;20589;-77
2022/05/21 07:45:02;;;;;;;11.80;4.60;;;15.80;41.90;;;;;;5077150;28;20172;-78
2022/05/21 07:47:28;;;;;;;12.97;4.97;;;15.90;36.70;;;;;;5077807;28;20245;-82
2022/05/21 07:49:56;;;;;;;9.87;4.47;;;16.00;31.60;;;;;;5079744;28;20686;-85
2022/05/21 07:52:28;;;;;;;14.20;4.73;;;15.90;31.70;;;;;;5078078;28;20621;-76
2022/05/21 07:54:54;;;;;;;10.80;4.70;;;15.90;34.90;;;;;;5077683;28;20176;-79
2022/05/21 07:57:20;;;;;;;14.50;5.60;;;15.80;36.80;;;;;;5079183;28;20211;-85
2022/05/21 07:59:46;;;;;;;15.40;5.33;;;16.00;32.90;;;;;;5077470;28;20584;-83
2022/05/21 08:02:15;;;;;;;13.20;4.40;;;16.00;31.70;;;;;;5079544;28;20184;-80
2022/05/21 08:05:00;;;;;;;14.20;4.57;;;16.20;27.70;;;;;;5076293;28;20506;-82
2022/05/21 08:07:25;;;;;;;16.70;4.80;;;16.20;26.80;;;;;;5078328;28;20183;-81
2022/05/21 08:09:51;;;;;;;14.57;4.80;;;16.30;24.90;;;;;;5080353;28;20168;-85
2022/05/21 08:12:22;;;;;;;15.07;4.70;;;16.50;18.10;;;;;;5076895;28;20157;-82
2022/05/21 08:14:49;;;;;;;12.90;4.73;;;16.60;10.40;;;;;;5073742;28;20252;-80
2022/05/21 08:17:15;;;;;;;12.50;4.33;;;16.60;11.40;;;;;;5071954;28;20172;-84
2022/05/21 08:19:41;;;;;;;11.90;4.37;;;16.60;9.10;;;;;;5073070;28;20168;-82
2022/05/21 08:27:38;;;;;;;13.57;4.47;;;16.50;5.40;;;;;;5076030;28;20175;-78
2022/05/21 08:30:06;;;;;;;15.43;4.13;;;16.60;10.20;;;;;;5074416;28;20188;-86
2022/05/21 08:32:31;;;;;;;13.03;4.57;;;16.70;9.90;;;;;;5072366;28;20180;-85
2022/05/21 08:34:59;;;;;;;9.47;3.73;;;16.80;6.90;;;;;;5079254;28;20172;-84
2022/05/21 08:37:27;;;;;;;11.43;3.60;;;16.80;1.00;;;;;;5075770;28;20175;-85
2022/05/21 08:39:53;;;;;;;8.30;3.40;;;16.70;1.00;;;;;;5073433;28;20164;-83
2022/05/21 08:42:31;;;;;;;13.43;3.90;;;16.80;1.00;;;;;;5073063;28;20569;-82
2022/05/21 08:45:14;;;;;;;11.37;3.60;;;16.70;1.00;;;;;;5071461;28;20600;-81
2022/05/21 08:47:41;;;;;;;12.87;3.80;;;17.00;1.00;;;;;;5069796;28;20252;-79
2022/05/21 08:50:13;;;;;;;10.80;3.53;;;17.00;1.00;;;;;;5083789;28;20161;-79
2022/05/21 08:52:51;;;;;;;9.90;3.17;;;16.70;1.00;;;;;;5069467;28;20161;-82
2022/05/21 08:55:26;;;;;;;8.97;3.60;;;16.60;1.00;;;;;;5053347;28;20222;-78
2022/05/21 08:57:57;;;;;;;10.00;3.60;;;16.60;1.00;;;;;;5094173;28;20187;-77
2022/05/21 09:00:40;;;;;;;10.63;3.13;;;16.70;1.00;;;;;;5105182;28;20168;-79
2022/05/21 09:03:11;;;;;;;11.07;2.73;;;16.70;1.00;;;;;;5097912;28;20215;-80
2022/05/21 09:05:42;;;;;;;9.90;3.10;;;16.90;1.00;;;;;;5076409;28;20174;-78
2022/05/21 09:08:34;;;;;;;12.40;3.50;;;17.10;1.00;;;;;;5056747;28;20177;-81
2022/05/21 09:11:13;;;;;;;9.10;3.40;;;17.30;1.00;;;;;;5050531;28;20205;-81
2022/05/21 09:13:38;;;;;;;11.43;3.10;;;17.50;1.00;;;;;;5051959;28;20180;-80
2022/05/21 09:18:49;;;;;;;10.17;3.00;;;17.40;1.00;;;;;;5060917;28;20259;-83
2022/05/21 09:21:22;;;;;;;10.67;3.33;;;17.40;1.00;;;;;;5063044;28;20161;-80
2022/05/21 09:23:53;;;;;;;12.90;4.30;;;17.50;1.00;;;;;;5083828;28;20216;-81
2022/05/21 09:26:30;;;;;;;10.80;3.43;;;17.60;1.00;;;;;;5080755;28;20165;-80
2022/05/21 09:29:26;;;;;;;11.47;4.23;;;17.50;1.00;;;;;;5076547;28;20246;-77
2022/05/21 09:31:55;;;;;;;13.80;4.20;;;17.60;1.00;;;;;;5050077;28;20188;-76
2022/05/21 09:34:35;;;;;;;8.77;3.03;;;17.60;1.00;;;;;;5047088;28;20185;-77
2022/05/21 09:37:12;;;;;;;8.67;3.47;;;18.00;1.00;;;;;;5048757;28;20192;-79
2022/05/21 09:39:39;;;;;;;8.77;3.37;;;18.10;1.00;;;;;;5051586;28;20157;-77
2022/05/21 09:45:29;;;;;;;11.70;3.37;;;18.10;1.00;;;;;;5074405;28;20199;-79
2022/05/21 09:48:06;;;;;;;12.20;3.17;;;18.10;1.00;;;;;;5075648;28;20189;-79
2022/05/21 09:50:54;;;;;;;12.37;3.20;;;17.70;1.00;;;;;;5065948;28;20525;-78
2022/05/21 09:53:43;;;;;;;10.43;2.80;;;18.00;1.00;;;;;;5064691;28;20146;-79
2022/05/21 09:56:59;;;;;;;9.93;3.00;;;18.00;1.00;;;;;;5061395;28;20173;-80
2022/05/21 10:00:04;;;;;;;7.43;2.70;;;18.20;1.00;;;;;;5061594;28;20177;-78
2022/05/21 10:03:24;;;;;;;8.70;2.73;;;18.10;1.00;;;;;;5059592;28;20154;-78
2022/05/21 10:05:56;;;;;;;9.50;2.73;;;18.00;1.00;;;;;;5048587;28;20204;-80
2022/05/21 10:11:49;;;;;;;8.80;2.53;;;18.10;1.00;;;;;;5038347;28;20228;-81
2022/05/21 10:14:23;;;;;;;10.33;2.97;;;18.20;1.00;;;;;;5036618;28;20315;-79
2022/05/21 10:16:58;;;;;;;7.67;3.10;;;18.30;1.00;;;;;;5039342;28;20635;-83
2022/05/21 10:19:46;;;;;;;7.63;2.90;;;18.50;1.00;;;;;;5036975;28;20179;-82
2022/05/21 10:22:56;;;;;;;9.80;3.10;;;18.70;1.00;;;;;;5035914;28;20264;-80
2022/05/21 10:25:25;;;;;;;8.40;2.50;;;18.60;1.00;;;;;;5005544;28;20197;-81
2022/05/21 10:28:19;;;;;;;10.77;2.37;;;18.70;1.00;;;;;;5040281;28;20223;-81
2022/05/21 10:31:19;;;;;;;7.93;2.10;;;18.70;1.00;;;;;;5049029;28;20205;-81
2022/05/21 10:34:04;;;;;;;6.83;2.00;;;18.60;1.00;;;;;;5052155;28;20183;-83
2022/05/21 10:36:50;;;;;;;6.17;2.10;;;18.70;1.00;;;;;;5037641;28;20170;-82
2022/05/21 10:39:31;;;;;;;8.47;2.60;;;18.40;1.00;;;;;;5033784;28;20180;-82
2022/05/21 10:42:06;;;;;;;11.23;2.50;;;18.10;1.00;;;;;;5056621;28;20181;-82
2022/05/21 10:44:47;;;;;;;9.93;2.63;;;18.30;1.00;;;;;;5039930;28;20216;-81
2022/05/21 10:47:27;;;;;;;9.00;2.47;;;18.30;1.00;;;;;;5037643;28;20173;-82
2022/05/21 10:50:05;;;;;;;11.30;3.27;;;18.60;1.00;;;;;;5063638;28;20637;-79
2022/05/21 10:52:42;;;;;;;8.73;3.00;;;18.70;1.00;;;;;;5053613;28;20169;-79
2022/05/21 10:55:46;;;;;;;8.33;2.43;;;18.70;1.00;;;;;;5075445;28;20228;-78
2022/05/21 10:58:20;;;;;;;9.60;2.83;;;18.90;1.00;;;;;;5034863;28;20154;-80
2022/05/21 11:00:52;;;;;;;9.77;2.80;;;18.70;1.00;;;;;;5035143;28;20160;-79
2022/05/21 11:03:52;;;;;;;5.97;2.20;;;18.80;1.00;;;;;;5035326;28;20215;-81
2022/05/21 11:06:53;;;;;;;10.57;2.70;;;19.00;1.00;;;;;;5034578;28;20231;-81
2022/05/21 11:09:39;;;;;;;6.80;2.07;;;19.20;1.00;;;;;;5035307;28;20189;-82
2022/05/21 11:12:22;;;;;;;6.87;2.07;;;19.50;99.90;;;;;;5035019;28;20172;-81
2022/05/21 11:15:24;;;;;;;5.33;1.80;;;19.40;1.00;;;;;;5035324;28;20263;-80
2022/05/21 11:18:24;;;;;;;6.87;2.13;;;19.60;99.90;;;;;;5039362;28;20186;-76
2022/05/21 11:21:26;;;;;;;6.57;1.77;;;19.70;99.90;;;;;;5043616;28;20188;-79
2022/05/21 11:24:10;;;;;;;6.97;2.50;;;19.70;99.90;;;;;;5046233;28;20206;-77
2022/05/21 11:26:52;;;;;;;6.93;2.00;;;19.80;99.90;;;;;;5074528;28;20236;-79
2022/05/21 11:29:37;;;;;;;7.57;2.20;;;19.70;99.90;;;;;;5066297;28;20197;-81
2022/05/21 11:37:53;;;;;;;6.40;1.83;;;19.40;99.90;;;;;;5038945;28;20196;-80
2022/05/21 11:41:24;;;;;;;5.80;2.10;;;19.40;99.90;;;;;;5049442;28;20176;-79
2022/05/21 11:46:51;;;;;;;8.57;3.67;;;19.20;99.90;;;;;;5054702;28;20230;-84
2022/05/21 11:49:38;;;;;;;7.73;2.50;;;19.30;99.90;;;;;;5055373;28;20268;-80
2022/05/21 11:52:31;;;;;;;7.73;2.80;;;19.50;1.00;;;;;;5034504;28;20251;-83
2022/05/21 11:55:11;;;;;;;10.20;3.57;;;19.80;1.00;;;;;;5062108;28;20169;-77
2022/05/21 11:57:43;;;;;;;7.83;3.57;;;19.80;99.90;;;;;;5068620;28;20173;-83
2022/05/21 12:00:17;;;;;;;6.13;1.90;;;19.80;99.90;;;;;;5044281;28;20610;-80
2022/05/21 12:02:56;;;;;;;8.20;2.93;;;19.70;99.90;;;;;;5034718;28;20172;-80
2022/05/21 12:05:34;;;;;;;6.43;2.10;;;19.80;99.90;;;;;;5041327;28;20209;-80
2022/05/21 12:08:19;;;;;;;8.23;2.70;;;19.60;99.90;;;;;;5042961;28;20181;-76
2022/05/21 12:11:09;;;;;;;5.60;2.30;;;19.60;99.90;;;;;;5035332;28;20654;-78
2022/05/21 12:13:35;;;;;;;7.20;2.07;;;19.70;99.90;;;;;;5035768;28;20183;-80
2022/05/21 12:16:23;;;;;;;8.13;1.93;;;19.80;99.90;;;;;;5053568;28;20171;-79
2022/05/21 12:19:00;;;;;;;8.53;2.10;;;19.90;99.90;;;;;;5054250;28;20154;-79
2022/05/21 12:21:29;;;;;;;7.20;2.07;;;20.10;99.90;;;;;;5054636;28;20174;-82
2022/05/21 12:23:58;;;;;;;5.97;1.77;;;20.20;99.90;;;;;;5053659;28;20246;-79
2022/05/21 12:26:27;;;;;;;7.23;2.10;;;20.50;99.90;;;;;;5037059;28;20266;-82
2022/05/21 12:29:22;;;;;;;5.83;1.93;;;20.50;99.90;;;;;;5034231;28;20167;-80
2022/05/21 12:32:01;;;;;;;8.23;2.23;;;20.20;99.90;;;;;;5074049;28;20208;-76
2022/05/21 12:34:44;;;;;;;6.77;2.07;;;20.20;99.90;;;;;;5087135;28;20177;-80
2022/05/21 12:37:21;;;;;;;8.60;2.47;;;20.30;99.90;;;;;;5072924;28;20167;-78
2022/05/21 12:40:13;;;;;;;8.17;1.90;;;20.60;99.90;;;;;;5060328;28;20178;-79
2022/05/21 12:42:51;;;;;;;4.20;1.77;;;20.60;99.90;;;;;;5053599;28;20179;-84
2022/05/21 12:45:50;;;;;;;6.97;2.13;;;20.30;30.60;;;;;;5053764;28;20196;-82
2022/05/21 12:48:34;;;;;;;6.37;2.00;;;20.20;1.00;;;;;;5041172;28;20187;-82
2022/05/21 12:51:03;;;;;;;8.07;2.20;;;20.60;99.90;;;;;;5056537;28;20167;-79
2022/05/21 12:53:37;;;;;;;9.27;2.03;;;20.90;99.90;;;;;;5056509;28;20176;-81
2022/05/21 12:56:33;;;;;;;6.17;1.60;;;20.90;1.00;;;;;;5058898;28;20635;-79
2022/05/21 12:59:07;;;;;;;6.63;2.00;;;20.70;1.00;;;;;;5054885;28;20650;-77
2022/05/21 13:01:36;;;;;;;5.90;1.77;;;20.70;99.90;;;;;;5056849;28;20173;-80
2022/05/21 13:04:19;;;;;;;6.37;1.57;;;20.90;1.00;;;;;;5056746;28;20276;-83
2022/05/21 13:06:45;;;;;;;8.37;2.83;;;20.80;99.90;;;;;;5058111;28;20169;-83
2022/05/21 13:09:14;;;;;;;5.83;2.27;;;20.80;99.90;;;;;;5053261;28;20648;-79
2022/05/21 13:11:44;;;;;;;4.53;1.67;;;20.70;99.90;;;;;;5037006;28;20170;-79
2022/05/21 13:14:33;;;;;;;6.33;2.40;;;20.70;99.90;;;;;;5038117;28;20537;-81
2022/05/21 13:17:00;;;;;;;9.10;2.00;;;20.90;99.90;;;;;;5036537;28;20168;-81
2022/05/21 13:19:39;;;;;;;6.57;1.90;;;21.20;99.90;;;;;;5035807;28;20267;-79
2022/05/21 13:22:32;;;;;;;4.33;1.70;;;21.20;99.90;;;;;;5037335;28;20207;-81
2022/05/21 13:25:03;;;;;;;6.67;2.07;;;21.00;99.90;;;;;;5036202;28;20287;-78
2022/05/21 13:27:46;;;;;;;7.23;2.17;;;21.00;99.90;;;;;;5036313;28;20669;-79
2022/05/21 13:30:17;;;;;;;5.30;2.40;;;21.00;99.90;;;;;;5035052;28;20245;-79
2022/05/21 13:32:43;;;;;;;6.47;2.30;;;20.90;99.90;;;;;;5037041;28;20178;-79
2022/05/21 13:35:26;;;;;;;6.00;1.90;;;20.80;99.90;;;;;;5054546;28;20175;-80
2022/05/21 13:37:52;;;;;;;6.00;1.97;;;20.80;1.00;;;;;;5061303;28;20177;-80
2022/05/21 13:40:23;;;;;;;5.33;2.20;;;21.10;99.90;;;;;;5076730;28;20161;-81
2022/05/21 13:42:52;;;;;;;6.73;2.60;;;21.00;99.90;;;;;;5076849;28;20241;-83
2022/05/21 13:45:28;;;;;;;7.37;2.00;;;20.90;1.00;;;;;;5076668;28;20266;-78
2022/05/21 13:48:15;;;;;;;6.77;2.10;;;21.00;99.90;;;;;;5052716;28;20643;-78
2022/05/21 13:50:45;;;;;;;8.10;2.73;;;21.10;99.90;;;;;;5055524;28;20179;-79
2022/05/21 13:53:18;;;;;;;7.37;2.97;;;20.70;99.90;;;;;;5056579;28;20267;-85
2022/05/21 13:56:01;;;;;;;10.60;2.70;;;20.70;1.00;;;;;;5058379;28;20187;-79